Letzte erfasste Runde: - - - -
Platz Datum Fahrer Zeit Diff Fahrzeug Session Runden
- - Theoretische Bestzeit - - - - -
1 05.09.2019 Nick Schulte-Wissermann 1:28.913 - Ferrari 488 GTE Qualifying 13
2 05.09.2019 Oliver Beyer 1:28.953 0.040 BMW M8 GTE Qualifying 21
3 05.09.2019 Sascha Engelhardt 1:28.989 0.076 BMW M8 GTE Qualifying 12
4 05.09.2019 Christian Bug 1:29.171 0.258 BMW M8 GTE Qualifying 8
5 05.09.2019 Sascha Bürger 1:29.189 0.276 BMW M8 GTE Qualifying 16
6 05.09.2019 Ergin Karakus 1:29.228 0.315 Porsche 911 RSR 2018 GTE Qualifying 83
7 05.09.2019 Sascha Landgraf 1:29.406 0.493 Porsche 911 RSR 2018 GTE Qualifying 17
8 05.09.2019 Christopher Heimann 1:29.434 0.521 BMW M8 GTE Qualifying 28
9 05.09.2019 Stefan Glosemeyer 1:29.477 0.564 BMW M8 GTE Qualifying 33
10 05.09.2019 Martin Kolibal 1:29.518 0.605 Ferrari 488 GTE Qualifying 16
11 05.09.2019 Antonino Sammarco 1:29.548 0.635 Ferrari 488 GTE Qualifying 23
12 05.09.2019 Markus Papenbrock 1:29.560 0.647 Porsche 911 RSR 2018 GTE Qualifying 80
13 05.09.2019 Lennart Kaiser 1:29.561 0.648 Porsche 911 RSR 2018 GTE Qualifying 112
14 05.09.2019 Patrick Schillikowski 1:29.566 0.653 Ford GT 2017 Qualifying 30
15 05.09.2019 Jens Homann 1:29.577 0.664 Ferrari 488 GTE Qualifying 34
16 05.09.2019 Marcel Jochheim 1:29.598 0.685 Porsche 911 RSR 2018 GTE Qualifying 30
17 05.09.2019 André Melchers 1:29.624 0.711 BMW M8 GTE Qualifying 9
18 05.09.2019 Gast 1:29.634 0.721 Porsche 911 RSR 2018 GTE Qualifying 46
19 05.09.2019 Sascha Hellermann 1:29.635 0.722 Ferrari 488 GTE Qualifying 10
20 05.09.2019 John Atkinson 1:29.666 0.753 Ford GT 2017 Qualifying 34
21 05.09.2019 Jens Althaus 1:29.705 0.792 Ferrari 488 GTE Qualifying 28
22 05.09.2019 Markus Römer 1:29.725 0.812 Porsche 911 RSR 2018 GTE Qualifying 32
23 05.09.2019 Christian Schupfner 1:29.731 0.818 BMW M8 GTE Qualifying 27
24 05.09.2019 Marcel Gräbner 1:29.736 0.823 Ford GT 2017 Qualifying 57
25 05.09.2019 Tobias Ogrodnik 1:29.770 0.857 Ferrari 488 GTE Qualifying 21
26 05.09.2019 Alexander Warnke 1:29.775 0.862 Ferrari 488 GTE Qualifying 47
27 05.09.2019 Kai Hitschler 1:29.786 0.873 BMW M8 GTE Qualifying 28
28 05.09.2019 Manuel Lange 1:29.797 0.884 Porsche 911 RSR 2018 GTE Qualifying 36
29 05.09.2019 Bernd Vogel 1:29.823 0.910 BMW M8 GTE Qualifying 72
30 05.09.2019 Dominik Scheid 1:30.015 1.102 Porsche 911 RSR 2018 GTE Qualifying 56
31 05.09.2019 Jan Fecker 1:30.025 1.112 Porsche 911 RSR 2018 GTE Qualifying 44
32 05.09.2019 Martin Lehmann 1:30.069 1.156 BMW M8 GTE Qualifying 9
33 05.09.2019 Martin Sill 1:30.086 1.173 Porsche 911 RSR 2018 GTE Qualifying 63
34 05.09.2019 Mark Hildebrandt 1:30.139 1.226 Ferrari 488 GTE Qualifying 37
35 05.09.2019 Stephan Hirt 1:30.353 1.440 BMW M8 GTE Qualifying 17
36 05.09.2019 Jan Lintz 1:30.411 1.498 BMW M8 GTE Qualifying 15
37 05.09.2019 Jens Nixdorf 1:30.442 1.529 Porsche 911 RSR 2018 GTE Qualifying 144
38 05.09.2019 Alexander Polak 1:30.699 1.786 Ferrari 488 GTE Qualifying 29
39 05.09.2019 Sven Brötz 1:30.764 1.851 BMW M8 GTE Qualifying 4
40 05.09.2019 Sven Lippe 1:30.767 1.854 BMW M8 GTE Qualifying 38
41 05.09.2019 Dennis Andlauer 1:30.900 1.987 Porsche 911 RSR 2018 GTE Qualifying 38
42 05.09.2019 Benjamin Kaiser 1:31.785 2.872 Porsche 911 RSR 2018 GTE Qualifying 15
43 05.09.2019 Marc Wieneke 1:32.500 3.587 Porsche 911 RSR 2018 GTE Qualifying 20
44 20.09.2018 Marc Faetkenheuer 1:32.799 3.886 Mercedes-Benz AMG GT3 Qualifying 94
45 20.09.2018 Lars Hung 1:32.878 3.965 McLaren MP4-12C GT3 Qualifying 70
46 20.09.2018 Ersin Cihan 1:33.029 4.116 Mercedes-Benz AMG GT3 Qualifying 57
47 20.09.2018 Marcus Krüger 1:33.468 4.555 Mercedes-Benz AMG GT3 Qualifying 79
48 17.09.2018 Manuel Liebig 1:33.886 4.973 Mercedes-Benz AMG GT3 Qualifying 18
49 17.09.2018 Salvatore Rotondo 1:34.991 6.078 Mercedes-Benz AMG GT3 Qualifying 70
50 27.03.2018 Martin Ascher 1:35.029 6.116 Porsche 911 GT3 Cup 2017 Qualifying 16
51 27.03.2018 Carsten Filmer 1:35.258 6.345 Porsche 911 GT3 Cup 2017 Qualifying 40
52 27.03.2018 Hannes Thaler 1:35.301 6.388 Porsche 911 GT3 Cup 2017 Qualifying 20
53 27.03.2018 Hans-Bodo Kohl 1:35.462 6.549 Porsche 911 GT3 Cup 2017 Qualifying 80
54 27.03.2018 Mirko Hofer 1:36.506 7.593 Porsche 911 GT3 Cup 2017 Qualifying 38
55 01.04.2018 Johannes Neuses 1:36.882 7.969 Porsche 911 GT3 Cup 2017 Qualifying 38
56 01.04.2018 Thomas Dellmuth 1:37.089 8.176 Porsche 911 GT3 Cup 2017 Qualifying 26
57 01.04.2018 Marcel Bertram 1:37.215 8.302 Porsche 911 GT3 Cup 2017 Qualifying 45
58 01.04.2018 Alex Knauer 1:37.347 8.434 Porsche 911 GT3 Cup 2017 Qualifying 13
59 01.04.2018 Christian Schmitt3 1:37.614 8.701 Porsche 911 GT3 Cup 2017 Qualifying 3
60 27.03.2018 Helmut Weber 1:38.308 9.395 Porsche 911 GT3 Cup 2017 Qualifying 11
61 01.04.2018 Donatjen Bellafronte 1:38.624 9.711 Porsche 911 GT3 Cup 2017 Qualifying 26
62 01.04.2018 Ronny Herich 1:38.793 9.880 Porsche 911 GT3 Cup 2017 Qualifying 15

SERVER

0 / 61
virtualracing.org #1 GTM
Training 1Lime Rock Park -- Uphill Chicane
0 / 81
virtualracing.org #3 FS
Training 1Lime Rock Park -- Uphill Chicane
0 / 81
virtualracing.org #4 LSM
Training 1Spa-Francorchamps Endurance
0 / 34
virtualracing.org #5 VRF1S
Training 1Zandvoort 2021
0 / 34
virtualracing.org #6 VRCS
Training 1Donington Park National Circuit
0 / 81
virtualracing.org #P1 BTCC
Training 1Silverstone National
0 / 81
virtualracing.org #P2 CA
Training 1Anglesey Circuit - Coastal
0 / 34
virtualracing.org #P3 Mini
Training 1Le Grand Circuit 1967
0 / 33
virtualracing.org #P4 IR18
Training 1Louisiana -- Indy Grand Prix
0/31
virtualracing.org#4 GTC Training Standard
TrainingDaytona International Speedway - Road Course
0/31
virtualracing.org#5 GTC Training A
TrainingDaytona International Speedway - Road Course
0/24
virtualracing.org#30 ALT Training
TrainingFuji Speedway - Grand Prix Circuit 1968
0/32
virtualracing.org#33 GTC Starttest
unbekanntDaytona International Speedway - Road Course